createdAt,value
2023-02-08T00:01:03.327Z,15.02
2023-02-08T00:04:10.814Z,16.40
2023-02-08T00:07:17.875Z,14.50
2023-02-08T00:10:23.976Z,15.23
2023-02-08T00:13:30.864Z,13.90
2023-02-08T00:16:35.796Z,9.32
2023-02-08T00:19:43.684Z,9.25
2023-02-08T00:22:49.288Z,12.48
2023-02-08T00:25:54.511Z,12.27
2023-02-08T00:28:59.327Z,15.27
2023-02-08T00:32:04.559Z,16.83
2023-02-08T00:35:12.408Z,14.30
2023-02-08T00:38:17.986Z,13.07
2023-02-08T00:41:22.939Z,11.93
2023-02-08T00:44:32.071Z,16.00
2023-02-08T00:47:38.115Z,15.98
2023-02-08T00:50:45.872Z,10.88
2023-02-08T00:53:50.968Z,12.23
2023-02-08T00:56:59.065Z,14.30
2023-02-08T01:00:04.696Z,9.82
2023-02-08T01:03:10.164Z,14.00
2023-02-08T01:06:20.663Z,11.15
2023-02-08T01:09:26.828Z,13.88
2023-02-08T01:12:32.312Z,14.23
2023-02-08T01:15:37.474Z,10.77
2023-02-08T01:18:42.389Z,14.10
2023-02-08T01:21:52.651Z,13.23
2023-02-08T01:25:01.348Z,11.88
2023-02-08T01:28:06.678Z,13.48
2023-02-08T01:31:12.970Z,10.63
2023-02-08T01:34:20.052Z,10.57
2023-02-08T01:37:27.494Z,10.77
2023-02-08T01:40:41.583Z,13.30
2023-02-08T01:44:02.768Z,11.85
2023-02-08T01:47:08.389Z,13.65
2023-02-08T01:50:13.956Z,13.38
2023-02-08T01:53:24.603Z,13.38
2023-02-08T01:56:33.360Z,12.75
2023-02-08T01:59:41.093Z,12.02
2023-02-08T02:02:47.832Z,11.50
2023-02-08T02:05:56.923Z,11.77
2023-02-08T02:09:08.297Z,10.63
2023-02-08T02:12:14.673Z,14.43
2023-02-08T02:15:22.170Z,14.35
2023-02-08T02:18:28.179Z,13.95
2023-02-08T02:21:44.899Z,13.80
2023-02-08T02:25:07.949Z,13.95
2023-02-08T02:28:28.743Z,13.82
2023-02-08T02:31:49.883Z,15.50
2023-02-08T02:34:57.468Z,13.20
2023-02-08T02:38:09.956Z,11.70
2023-02-08T02:41:42.701Z,11.90
2023-02-08T02:44:49.964Z,11.00
2023-02-08T02:48:02.380Z,14.27
2023-02-08T02:51:13.030Z,11.48
2023-02-08T02:54:19.823Z,15.73
2023-02-08T02:57:29.723Z,14.23
2023-02-08T03:00:35.748Z,14.48
2023-02-08T03:03:47.494Z,13.27
2023-02-08T03:07:00.153Z,10.65
2023-02-08T03:10:10.369Z,13.30
2023-02-08T03:13:18.402Z,15.98
2023-02-08T03:16:29.673Z,15.25
2023-02-08T03:19:38.998Z,16.25
2023-02-08T03:22:47.725Z,15.00
2023-02-08T03:25:55.734Z,16.55
2023-02-08T03:29:05.535Z,16.30
2023-02-08T03:32:13.085Z,13.80
2023-02-08T03:35:24.295Z,14.82
2023-02-08T03:38:31.779Z,14.85
2023-02-08T03:41:39.225Z,13.50
2023-02-08T03:44:45.691Z,15.88
2023-02-08T03:47:52.481Z,17.33
2023-02-08T03:51:01.321Z,16.52
2023-02-08T03:54:08.348Z,16.67
2023-02-08T03:57:15.901Z,16.02
2023-02-08T04:00:21.997Z,15.25
2023-02-08T04:03:28.771Z,15.30
2023-02-08T04:06:38.462Z,15.13
2023-02-08T04:09:43.937Z,16.73
2023-02-08T04:12:50.733Z,14.50
2023-02-08T04:15:55.683Z,13.77
2023-02-08T04:19:00.936Z,15.13
2023-02-08T04:22:08.961Z,15.63
2023-02-08T04:25:15.406Z,15.25
2023-02-08T04:28:20.786Z,15.05
2023-02-08T04:31:26.401Z,17.50
2023-02-08T04:34:31.392Z,17.40
2023-02-08T04:37:39.304Z,13.13
2023-02-08T04:40:46.895Z,15.45
2023-02-08T04:43:53.627Z,17.75
2023-02-08T04:46:58.580Z,17.23
2023-02-08T04:50:03.803Z,18.13
2023-02-08T04:53:11.272Z,16.13
2023-02-08T04:56:16.375Z,15.70
2023-02-08T04:59:21.438Z,16.42
2023-02-08T05:02:26.781Z,15.35
2023-02-08T05:05:32.112Z,17.73
2023-02-08T05:08:42.088Z,17.13
2023-02-08T05:11:46.996Z,15.05
2023-02-08T05:14:52.221Z,16.13
2023-02-08T05:17:57.127Z,17.35
2023-02-08T05:21:04.181Z,18.50
2023-02-08T05:24:13.050Z,15.35
2023-02-08T05:27:18.335Z,16.58
2023-02-08T05:30:23.262Z,18.95
2023-02-08T05:33:30.070Z,15.70
2023-02-08T05:36:34.924Z,18.23
2023-02-08T05:39:44.332Z,16.08
2023-02-08T05:42:50.557Z,15.18
2023-02-08T05:45:56.006Z,16.30
2023-02-08T05:49:00.854Z,17.48
2023-02-08T05:52:07.514Z,19.17
2023-02-08T05:55:14.899Z,15.75
2023-02-08T05:58:20.399Z,14.57
2023-02-08T06:01:26.177Z,15.02
2023-02-08T06:04:32.730Z,15.43
2023-02-08T06:07:38.393Z,10.98
2023-02-08T06:10:46.193Z,12.77
2023-02-08T06:13:52.391Z,13.00
2023-02-08T06:16:58.075Z,14.00
2023-02-08T06:20:02.870Z,16.05
2023-02-08T06:23:10.557Z,11.02
2023-02-08T06:26:21.169Z,15.15
2023-02-08T06:29:28.198Z,16.30
2023-02-08T06:32:33.134Z,15.18
2023-02-08T06:35:39.786Z,15.50
2023-02-08T06:38:44.583Z,17.52
2023-02-08T06:41:52.356Z,18.30
2023-02-08T06:44:59.139Z,10.40
2023-02-08T06:48:05.661Z,16.67
2023-02-08T06:51:11.331Z,16.33
2023-02-08T06:54:16.519Z,12.68
2023-02-08T06:57:23.901Z,14.90
2023-02-08T07:00:30.320Z,16.02
2023-02-08T07:03:35.209Z,12.10
2023-02-08T07:06:40.319Z,16.77
2023-02-08T07:09:46.528Z,14.00
2023-02-08T07:12:54.238Z,14.38
2023-02-08T07:15:59.331Z,11.10
2023-02-08T07:19:05.858Z,11.45
2023-02-08T07:22:12.313Z,14.35
2023-02-08T07:25:17.568Z,15.63
2023-02-08T07:28:24.985Z,15.50
2023-02-08T07:31:32.026Z,12.93
2023-02-08T07:34:37.792Z,14.15
2023-02-08T07:37:42.927Z,15.02
2023-02-08T07:40:49.221Z,15.45
2023-02-08T07:43:56.932Z,15.40
2023-02-08T07:47:02.105Z,16.33
2023-02-08T07:50:07.462Z,17.00
2023-02-08T07:53:13.528Z,16.20
2023-02-08T07:56:18.773Z,16.38
2023-02-08T07:59:26.389Z,16.73
2023-02-08T08:02:31.526Z,18.73
2023-02-08T08:05:37.780Z,16.33
2023-02-08T08:08:47.506Z,14.90
2023-02-08T08:11:53.886Z,15.52
2023-02-08T08:15:01.772Z,19.15
2023-02-08T08:18:11.176Z,17.83
2023-02-08T08:21:16.934Z,16.40
2023-02-08T08:24:23.064Z,14.88
2023-02-08T08:27:28.492Z,17.35
2023-02-08T08:30:35.906Z,16.65
2023-02-08T08:33:41.352Z,16.35
2023-02-08T08:36:46.182Z,14.68
2023-02-08T08:39:52.583Z,18.55
2023-02-08T08:42:58.732Z,16.67
2023-02-08T08:46:07.785Z,11.98
2023-02-08T08:49:12.751Z,17.05
2023-02-08T08:52:20.107Z,18.90
2023-02-08T08:55:24.879Z,17.85
2023-02-08T08:58:31.324Z,14.95
2023-02-08T09:01:42.356Z,18.80
2023-02-08T09:04:47.912Z,17.27
2023-02-08T09:07:52.737Z,14.80
2023-02-08T09:10:59.143Z,16.85
2023-02-08T09:14:06.205Z,15.57
2023-02-08T09:17:14.429Z,17.23
2023-02-08T09:20:19.515Z,17.33
2023-02-08T09:23:24.673Z,14.40
2023-02-08T09:26:29.570Z,16.83
2023-02-08T09:29:35.890Z,13.38
2023-02-08T09:32:43.395Z,10.05
2023-02-08T09:35:49.986Z,15.10
2023-02-08T09:39:00.961Z,15.25
2023-02-08T09:42:13.223Z,15.13
2023-02-08T09:45:41.320Z,17.83
2023-02-08T09:48:56.828Z,17.83
2023-02-08T09:52:04.757Z,17.17
2023-02-08T09:55:17.944Z,17.52
2023-02-08T10:01:28.848Z,13.25
2023-02-08T10:04:40.771Z,17.58
2023-02-08T10:07:47.223Z,14.27
2023-02-08T10:10:57.801Z,15.85
2023-02-08T10:14:11.311Z,15.00
2023-02-08T10:17:33.594Z,15.50
2023-02-08T10:20:46.974Z,17.30
2023-02-08T10:27:01.896Z,15.75
2023-02-08T10:30:23.741Z,14.02
2023-02-08T10:33:33.902Z,14.95
2023-02-08T10:36:45.427Z,16.20
2023-02-08T10:39:57.421Z,13.27
2023-02-08T10:43:13.955Z,17.35
2023-02-08T10:46:33.226Z,14.07
2023-02-08T10:49:52.215Z,13.65
2023-02-08T10:53:07.117Z,14.32
2023-02-08T10:56:15.892Z,13.82
2023-02-08T10:59:25.195Z,15.35
2023-02-08T11:02:34.533Z,16.90
2023-02-08T11:05:45.315Z,15.20
2023-02-08T11:09:03.573Z,12.95
2023-02-08T11:12:20.144Z,17.00
2023-02-08T11:15:36.515Z,15.82
2023-02-08T11:18:47.401Z,14.93
2023-02-08T11:21:56.611Z,15.60
2023-02-08T11:25:20.672Z,16.20
2023-02-08T11:28:38.738Z,14.50
2023-02-08T11:32:08.375Z,14.95
2023-02-08T11:35:28.766Z,14.77
2023-02-08T11:38:43.654Z,16.23
2023-02-08T11:41:56.933Z,14.43
2023-02-08T11:45:05.502Z,15.15
2023-02-08T11:48:23.080Z,12.68
2023-02-08T11:51:30.148Z,18.00
2023-02-08T11:54:37.178Z,15.20
2023-02-08T11:57:54.466Z,17.55
2023-02-08T12:01:03.756Z,17.33
2023-02-08T12:04:10.948Z,16.92
2023-02-08T12:07:23.161Z,13.13
2023-02-08T12:10:38.085Z,16.08
2023-02-08T12:13:57.653Z,15.80
2023-02-08T12:17:17.509Z,14.55
2023-02-08T12:20:38.993Z,16.40
2023-02-08T12:23:54.556Z,15.98
2023-02-08T12:27:06.128Z,16.08
2023-02-08T12:30:16.318Z,12.97
2023-02-08T12:33:33.654Z,18.23
2023-02-08T12:36:45.950Z,19.92
2023-02-08T12:40:06.791Z,18.80
2023-02-08T12:43:16.708Z,15.88
2023-02-08T12:46:29.749Z,15.93
2023-02-08T12:49:45.737Z,15.82
2023-02-08T12:52:55.279Z,19.55
2023-02-08T12:56:03.812Z,18.23
2023-02-08T12:59:13.843Z,16.77
2023-02-08T13:02:23.112Z,21.00
2023-02-08T13:05:32.044Z,17.95
2023-02-08T13:08:43.888Z,19.65
2023-02-08T13:11:51.725Z,22.85
2023-02-08T13:15:02.861Z,21.77
2023-02-08T13:18:13.700Z,22.17
2023-02-08T13:21:21.168Z,20.98
2023-02-08T13:24:33.348Z,18.88
2023-02-08T13:27:39.050Z,20.02
2023-02-08T13:30:45.569Z,18.83
2023-02-08T13:34:01.612Z,23.80
2023-02-08T13:37:16.526Z,25.02
2023-02-08T13:40:30.789Z,18.02
2023-02-08T13:43:40.170Z,15.48
2023-02-08T13:46:47.709Z,25.17
2023-02-08T13:49:57.149Z,20.05
2023-02-08T13:53:02.464Z,20.63
2023-02-08T13:56:12.398Z,21.67
2023-02-08T13:59:28.286Z,23.67
2023-02-08T14:02:34.793Z,22.65
2023-02-08T14:05:50.756Z,23.00
2023-02-08T14:09:00.464Z,21.85
2023-02-08T14:12:16.722Z,18.65
2023-02-08T14:15:28.894Z,20.33
2023-02-08T14:18:34.171Z,20.67
2023-02-08T14:21:41.256Z,21.13
2023-02-08T14:24:48.421Z,19.98
2023-02-08T14:28:03.300Z,20.80
2023-02-08T14:31:10.265Z,17.95
2023-02-08T14:34:30.473Z,19.25
2023-02-08T14:37:37.639Z,16.67
2023-02-08T14:40:52.880Z,17.27
2023-02-08T14:44:02.288Z,14.35
2023-02-08T14:47:08.048Z,17.85
2023-02-08T14:50:18.854Z,17.35
2023-02-08T14:53:29.588Z,16.83
2023-02-08T14:56:37.502Z,16.02
2023-02-08T14:59:45.125Z,15.27
2023-02-08T15:02:54.969Z,16.17
2023-02-08T15:06:14.785Z,16.52
2023-02-08T15:09:23.831Z,18.10
2023-02-08T15:12:33.061Z,15.63
2023-02-08T15:15:43.328Z,17.13
2023-02-08T15:18:53.944Z,16.90
2023-02-08T15:22:16.079Z,16.67
2023-02-08T15:25:24.821Z,14.95
2023-02-08T15:28:30.683Z,17.77
2023-02-08T15:31:38.636Z,18.52
2023-02-08T15:34:46.358Z,15.20
2023-02-08T15:37:51.812Z,18.15
2023-02-08T15:41:04.328Z,15.90
2023-02-08T15:44:21.559Z,18.83
2023-02-08T15:47:31.663Z,12.80
2023-02-08T15:50:46.412Z,20.00
2023-02-08T15:57:34.146Z,18.25
2023-02-08T16:00:40.096Z,14.55
2023-02-08T16:03:50.438Z,16.75
2023-02-08T16:06:56.527Z,18.27
2023-02-08T16:10:02.461Z,14.43
2023-02-08T16:13:09.267Z,19.05
2023-02-08T16:16:18.216Z,18.30
2023-02-08T16:19:27.849Z,17.73
2023-02-08T16:22:35.116Z,16.98
2023-02-08T16:25:46.019Z,10.52
2023-02-08T16:28:57.980Z,17.05
2023-02-08T16:32:07.917Z,14.10
2023-02-08T16:35:18.538Z,14.18
2023-02-08T16:38:25.772Z,18.05
2023-02-08T16:42:13.882Z,15.77
2023-02-08T16:45:23.443Z,13.90
2023-02-08T16:48:36.139Z,12.15
2023-02-08T16:51:45.295Z,15.00
2023-02-08T16:54:53.661Z,13.18
2023-02-08T16:58:00.295Z,14.32
2023-02-08T17:01:05.190Z,15.82
2023-02-08T17:04:10.480Z,16.30
2023-02-08T17:07:20.220Z,14.00
2023-02-08T17:10:28.783Z,15.70
2023-02-08T17:13:36.259Z,13.23
2023-02-08T17:16:44.060Z,17.20
2023-02-08T17:19:50.369Z,14.32
2023-02-08T17:23:00.526Z,14.65
2023-02-08T17:26:05.440Z,13.13
2023-02-08T17:29:13.412Z,15.15
2023-02-08T17:32:18.384Z,13.60
2023-02-08T17:35:23.597Z,14.73
2023-02-08T17:38:31.498Z,12.50
2023-02-08T17:41:37.782Z,14.88
2023-02-08T17:44:42.968Z,15.13
2023-02-08T17:47:48.073Z,15.82
2023-02-08T17:50:55.245Z,13.20
2023-02-08T17:54:05.535Z,10.85
2023-02-08T17:57:11.954Z,14.93
2023-02-08T18:00:18.460Z,14.45
2023-02-08T18:03:23.225Z,13.35
2023-02-08T18:06:29.007Z,12.88
2023-02-08T18:09:38.158Z,11.52
2023-02-08T18:12:45.093Z,14.38
2023-02-08T18:15:50.103Z,13.63
2023-02-08T18:18:57.354Z,14.35
2023-02-08T18:22:04.096Z,11.35
2023-02-08T18:25:12.826Z,11.20
2023-02-08T18:28:18.007Z,15.48
2023-02-08T18:31:23.343Z,12.00
2023-02-08T18:34:28.203Z,12.07
2023-02-08T18:37:33.534Z,14.25
2023-02-08T18:40:42.814Z,12.98
2023-02-08T18:43:48.039Z,13.77
2023-02-08T18:46:52.834Z,13.25
2023-02-08T18:49:58.477Z,12.25
2023-02-08T18:53:03.688Z,13.55
2023-02-08T18:56:14.294Z,12.82
2023-02-08T18:59:19.308Z,13.70
2023-02-08T19:02:26.528Z,14.13
2023-02-08T19:05:32.396Z,12.80
2023-02-08T19:08:41.389Z,14.57
2023-02-08T19:11:49.029Z,13.52
2023-02-08T19:14:54.248Z,12.45
2023-02-08T19:18:00.873Z,13.05
2023-02-08T19:21:07.070Z,15.95
2023-02-08T19:24:15.252Z,11.65
2023-02-08T19:27:23.457Z,11.05
2023-02-08T19:30:28.393Z,12.68
2023-02-08T19:33:33.826Z,13.77
2023-02-08T19:36:40.166Z,13.88
2023-02-08T19:39:45.339Z,12.80
2023-02-08T19:42:52.740Z,15.35
2023-02-08T19:45:57.921Z,13.60
2023-02-08T19:49:03.102Z,14.70
2023-02-08T19:52:08.283Z,10.65
2023-02-08T19:55:13.114Z,12.85
2023-02-08T19:58:23.501Z,12.07
2023-02-08T20:01:30.370Z,12.75
2023-02-08T20:04:35.560Z,12.52
2023-02-08T20:07:40.392Z,9.15
2023-02-08T20:10:46.562Z,10.38
2023-02-08T20:13:54.730Z,8.80
2023-02-08T20:16:59.908Z,10.50
2023-02-08T20:20:04.681Z,10.63
2023-02-08T20:23:21.755Z,8.65
2023-02-08T20:26:28.565Z,10.52
2023-02-08T20:29:38.710Z,8.02
2023-02-08T20:32:44.876Z,9.98
2023-02-08T20:35:50.019Z,9.32
2023-02-08T20:39:00.050Z,8.57
2023-02-08T20:42:06.312Z,7.65
2023-02-08T20:45:15.387Z,8.43
2023-02-08T20:48:20.634Z,7.28
2023-02-08T20:51:28.734Z,7.57
2023-02-08T20:54:33.933Z,8.13
2023-02-08T20:57:38.749Z,7.90
2023-02-08T21:00:47.021Z,7.47
2023-02-08T21:03:51.960Z,8.63
2023-02-08T21:06:57.304Z,8.38
2023-02-08T21:10:02.242Z,8.88
2023-02-08T21:13:07.378Z,7.50
2023-02-08T21:16:14.868Z,7.43
2023-02-08T21:19:22.344Z,8.30
2023-02-08T21:22:27.241Z,9.13
2023-02-08T21:25:32.430Z,8.32
2023-02-08T21:28:37.667Z,6.95
2023-02-08T21:31:48.129Z,8.55
2023-02-08T21:34:54.437Z,8.13
2023-02-08T21:38:02.446Z,9.32
2023-02-08T21:41:10.331Z,8.38
2023-02-08T21:44:15.467Z,8.75
2023-02-08T21:47:24.839Z,7.78
2023-02-08T21:50:43.097Z,8.57
2023-02-08T21:54:00.537Z,9.45
2023-02-08T21:57:08.081Z,8.82
2023-02-08T22:00:13.712Z,10.02
2023-02-08T22:03:23.088Z,9.27
2023-02-08T22:06:27.849Z,9.80
2023-02-08T22:09:36.103Z,10.07
2023-02-08T22:12:42.543Z,10.40
2023-02-08T22:15:47.805Z,9.68
2023-02-08T22:18:55.233Z,9.73
2023-02-08T22:22:00.506Z,9.13
2023-02-08T22:25:05.360Z,9.23
2023-02-08T22:28:10.883Z,9.98
2023-02-08T22:31:15.860Z,11.50
2023-02-08T22:34:26.998Z,12.70
2023-02-08T22:37:31.784Z,10.82
2023-02-08T22:40:46.242Z,11.38
2023-02-08T22:43:54.619Z,10.93
2023-02-08T22:47:01.892Z,13.93
2023-02-08T22:50:12.069Z,10.48
2023-02-08T22:53:19.785Z,10.85
2023-02-08T22:56:24.732Z,12.77
2023-02-08T22:59:30.026Z,12.82
2023-02-08T23:02:34.872Z,14.05
2023-02-08T23:05:46.733Z,12.52
2023-02-08T23:08:51.543Z,11.98
2023-02-08T23:11:58.063Z,15.18
2023-02-08T23:15:03.518Z,13.02
2023-02-08T23:18:11.114Z,13.50
2023-02-08T23:21:19.805Z,15.38
2023-02-08T23:24:24.994Z,12.27
2023-02-08T23:27:29.758Z,10.57
2023-02-08T23:30:43.771Z,12.80
2023-02-08T23:33:48.876Z,13.05
2023-02-08T23:36:58.005Z,11.73
2023-02-08T23:40:04.233Z,13.07
2023-02-08T23:43:09.395Z,14.45
2023-02-08T23:46:17.626Z,12.55
2023-02-08T23:49:22.797Z,15.52
2023-02-08T23:52:31.502Z,15.43
2023-02-08T23:55:37.944Z,13.35
2023-02-08T23:58:43.070Z,12.60
